Time;durP1;ratioP1;P1;durP2;ratioP2;P2;SDS_P1;SDS_P2;PMS_P1;PMS_P2;Temp;Humidity;BMP_temperature;BMP_pressure;BME280_temperature;BME280_humidity;BME280_pressure;Samples;Min_cycle;Max_cycle;Signal;HPM_P1;HPM_P2
2021/03/20 00:01:25;;;;;;;0.40;0.13;;;;;;;;;;4977863;28;20189;-62
2021/03/20 00:03:52;;;;;;;0.57;0.53;;;;;;;;;;4976872;28;20289;-62
2021/03/20 00:06:21;;;;;;;0.00;0.00;;;;;;;;;;4977857;28;20174;-63
2021/03/20 00:08:49;;;;;;;1.40;0.40;;;;;;;;;;4977567;28;20640;-62
2021/03/20 00:11:15;;;;;;;0.00;0.00;;;;;;;;;;4976713;28;20926;-63
2021/03/20 00:13:44;;;;;;;0.97;0.30;;;;;;;;;;4974800;28;20181;-62
2021/03/20 00:16:10;;;;;;;0.10;0.10;;;;;;;;;;4975996;28;20182;-63
2021/03/20 00:18:37;;;;;;;0.20;0.20;;;;;;;;;;4976920;28;20189;-62
2021/03/20 00:21:04;;;;;;;0.00;0.00;;;;;;;;;;4973248;28;20238;-62
2021/03/20 00:23:32;;;;;;;0.00;0.00;;;;;;;;;;4974118;28;20990;-62
2021/03/20 00:25:58;;;;;;;3.40;0.47;;;;;;;;;;4976691;28;20256;-62
2021/03/20 00:28:28;;;;;;;5.40;0.40;;;;;;;;;;4974991;28;20185;-62
2021/03/20 00:30:56;;;;;;;0.00;0.00;;;;;;;;;;4975027;28;20292;-62
2021/03/20 00:33:24;;;;;;;0.10;0.10;;;;;;;;;;4974496;28;20188;-62
2021/03/20 00:35:51;;;;;;;0.30;0.30;;;;;;;;;;4971707;28;20566;-62
2021/03/20 00:38:18;;;;;;;0.00;0.00;;;;;;;;;;4975517;28;20193;-63
2021/03/20 00:40:45;;;;;;;0.00;0.00;;;;;;;;;;4974985;28;20193;-63
2021/03/20 00:43:11;;;;;;;0.00;0.00;;;;;;;;;;4975083;28;20189;-63
2021/03/20 00:45:38;;;;;;;0.00;0.00;;;;;;;;;;4975616;28;20182;-62
2021/03/20 00:48:06;;;;;;;0.00;0.00;;;;;;;;;;4974729;28;20187;-63
2021/03/20 00:50:33;;;;;;;0.20;0.20;;;;;;;;;;4972884;28;20185;-62
2021/03/20 00:53:00;;;;;;;0.33;0.33;;;;;;;;;;4972162;28;21033;-62
2021/03/20 00:55:26;;;;;;;0.00;0.00;;;;;;;;;;4972188;28;20186;-63
2021/03/20 00:57:53;;;;;;;0.00;0.00;;;;;;;;;;4973552;28;20186;-62
2021/03/20 01:00:21;;;;;;;0.03;0.03;;;;;;;;;;4970715;28;20181;-62
2021/03/20 01:02:48;;;;;;;0.00;0.00;;;;;;;;;;4970041;28;20213;-62
2021/03/20 01:05:15;;;;;;;0.00;0.00;;;;;;;;;;4974931;28;20197;-63
2021/03/20 01:07:44;;;;;;;0.60;0.20;;;;;;;;;;4969920;28;20182;-63
2021/03/20 01:10:13;;;;;;;0.50;0.50;;;;;;;;;;4971855;28;21020;-63
2021/03/20 01:12:40;;;;;;;0.10;0.10;;;;;;;;;;4972232;28;20210;-62
2021/03/20 01:15:07;;;;;;;0.00;0.00;;;;;;;;;;4974929;28;20212;-62
2021/03/20 01:17:37;;;;;;;0.00;0.00;;;;;;;;;;4976907;28;20198;-63
2021/03/20 01:20:06;;;;;;;0.00;0.00;;;;;;;;;;4979870;28;20186;-63
2021/03/20 01:22:33;;;;;;;0.00;0.00;;;;;;;;;;4984477;28;20244;-62
2021/03/20 01:25:01;;;;;;;0.00;0.00;;;;;;;;;;4985056;28;20193;-62
2021/03/20 01:27:28;;;;;;;0.00;0.00;;;;;;;;;;4984338;28;20173;-62
2021/03/20 01:29:55;;;;;;;0.00;0.00;;;;;;;;;;4984852;28;20185;-62
2021/03/20 01:32:22;;;;;;;0.17;0.17;;;;;;;;;;4977300;28;20213;-62
2021/03/20 01:34:48;;;;;;;0.23;0.23;;;;;;;;;;4973863;28;20243;-62
2021/03/20 01:37:17;;;;;;;0.10;0.10;;;;;;;;;;4976071;28;20189;-62
2021/03/20 01:39:43;;;;;;;0.00;0.00;;;;;;;;;;4976789;28;20190;-62
2021/03/20 01:42:10;;;;;;;0.57;0.57;;;;;;;;;;4974030;28;20198;-62
2021/03/20 01:44:37;;;;;;;1.07;0.20;;;;;;;;;;4975873;28;20234;-62
2021/03/20 01:47:05;;;;;;;0.00;0.00;;;;;;;;;;4973643;28;21111;-62
2021/03/20 01:49:38;;;;;;;0.03;0.03;;;;;;;;;;4967593;28;20180;-62
2021/03/20 01:52:04;;;;;;;0.40;0.10;;;;;;;;;;4969104;28;20217;-62
2021/03/20 01:54:36;;;;;;;0.10;0.10;;;;;;;;;;4975919;28;20274;-62
2021/03/20 01:57:04;;;;;;;0.10;0.10;;;;;;;;;;4974797;28;20182;-62
2021/03/20 01:59:30;;;;;;;0.00;0.00;;;;;;;;;;4973239;28;20277;-62
2021/03/20 02:01:57;;;;;;;1.50;0.43;;;;;;;;;;4975842;28;20196;-62
2021/03/20 02:04:23;;;;;;;0.00;0.00;;;;;;;;;;4971868;28;20322;-62
2021/03/20 02:06:50;;;;;;;0.00;0.00;;;;;;;;;;4975651;28;20186;-62
2021/03/20 02:09:17;;;;;;;0.00;0.00;;;;;;;;;;4973570;28;20201;-63
2021/03/20 02:11:46;;;;;;;0.10;0.10;;;;;;;;;;4971815;28;21022;-62
2021/03/20 02:14:26;;;;;;;0.30;0.30;;;;;;;;;;4972564;28;20201;-62
2021/03/20 02:17:11;;;;;;;0.43;0.43;;;;;;;;;;4972403;28;20758;-62
2021/03/20 02:19:56;;;;;;;0.43;0.30;;;;;;;;;;4968003;28;20284;-62
2021/03/20 02:22:30;;;;;;;0.97;0.97;;;;;;;;;;4971650;28;20217;-63
2021/03/20 02:25:25;;;;;;;0.10;0.10;;;;;;;;;;4969253;28;21092;-62
2021/03/20 02:28:03;;;;;;;0.00;0.00;;;;;;;;;;4969314;28;20200;-62
2021/03/20 02:30:48;;;;;;;0.20;0.20;;;;;;;;;;4970862;28;20204;-62
2021/03/20 02:33:26;;;;;;;6.60;0.30;;;;;;;;;;4975419;28;20209;-62
2021/03/20 02:36:01;;;;;;;14.03;0.90;;;;;;;;;;4966140;28;20694;-62
2021/03/20 02:38:31;;;;;;;0.57;0.40;;;;;;;;;;4971192;28;20984;-62
2021/03/20 02:41:02;;;;;;;0.37;0.37;;;;;;;;;;4971667;28;20196;-62
2021/03/20 02:43:30;;;;;;;0.10;0.10;;;;;;;;;;4977496;28;20936;-62
2021/03/20 02:46:17;;;;;;;0.00;0.00;;;;;;;;;;4979377;28;20265;-63
2021/03/20 02:48:50;;;;;;;1.40;0.93;;;;;;;;;;4978355;28;20177;-62
2021/03/20 02:51:29;;;;;;;2.73;0.93;;;;;;;;;;4977242;28;20796;-62
2021/03/20 02:54:01;;;;;;;0.40;0.40;;;;;;;;;;4982933;28;21011;-62
2021/03/20 02:56:36;;;;;;;0.00;0.00;;;;;;;;;;4973840;28;20201;-62
2021/03/20 02:59:05;;;;;;;0.40;0.40;;;;;;;;;;4976886;28;20192;-62
2021/03/20 03:01:33;;;;;;;0.00;0.00;;;;;;;;;;4978706;28;20185;-62
2021/03/20 03:04:00;;;;;;;0.00;0.00;;;;;;;;;;4979604;28;20185;-62
2021/03/20 03:06:30;;;;;;;0.00;0.00;;;;;;;;;;4977375;28;20280;-62
2021/03/20 03:09:00;;;;;;;0.00;0.00;;;;;;;;;;4977078;28;20190;-62
2021/03/20 03:11:33;;;;;;;0.77;0.77;;;;;;;;;;4972587;28;20291;-62
2021/03/20 03:14:03;;;;;;;1.13;0.63;;;;;;;;;;4979619;28;20216;-63
2021/03/20 03:16:35;;;;;;;0.00;0.00;;;;;;;;;;4976762;28;20769;-62
2021/03/20 03:19:03;;;;;;;0.17;0.17;;;;;;;;;;4973848;28;20256;-62
2021/03/20 03:21:31;;;;;;;2.27;0.50;;;;;;;;;;4979026;28;20292;-62
2021/03/20 03:23:58;;;;;;;2.00;1.13;;;;;;;;;;4973117;28;20276;-62
2021/03/20 03:26:25;;;;;;;0.20;0.20;;;;;;;;;;4976850;28;20193;-62
2021/03/20 03:28:56;;;;;;;9.43;1.30;;;;;;;;;;4977756;28;20189;-62
2021/03/20 03:31:46;;;;;;;0.10;0.10;;;;;;;;;;4975168;28;20263;-62
2021/03/20 03:34:22;;;;;;;0.30;0.30;;;;;;;;;;4963623;28;20195;-62
2021/03/20 03:37:01;;;;;;;0.57;0.57;;;;;;;;;;4980531;28;20272;-62
2021/03/20 03:39:40;;;;;;;2.67;2.47;;;;;;;;;;4977549;28;20195;-62
2021/03/20 03:42:09;;;;;;;0.00;0.00;;;;;;;;;;4976515;28;20216;-62
2021/03/20 03:44:35;;;;;;;0.10;0.10;;;;;;;;;;4970385;28;20199;-62
2021/03/20 03:47:04;;;;;;;1.70;0.80;;;;;;;;;;4971650;28;20224;-62
2021/03/20 03:49:31;;;;;;;0.57;0.40;;;;;;;;;;4977657;28;20201;-62
2021/03/20 03:51:57;;;;;;;0.20;0.20;;;;;;;;;;4972008;28;20893;-62
2021/03/20 03:54:24;;;;;;;0.20;0.20;;;;;;;;;;4975727;28;20178;-62
2021/03/20 03:57:09;;;;;;;0.10;0.10;;;;;;;;;;4971390;28;20220;-62
2021/03/20 03:59:50;;;;;;;0.17;0.17;;;;;;;;;;4975570;28;20197;-62
2021/03/20 04:02:17;;;;;;;0.43;0.43;;;;;;;;;;4974998;28;20188;-62
2021/03/20 04:04:43;;;;;;;0.20;0.20;;;;;;;;;;4969485;28;20186;-62
2021/03/20 04:07:28;;;;;;;0.37;0.37;;;;;;;;;;4970963;28;20206;-62
2021/03/20 04:10:13;;;;;;;0.50;0.50;;;;;;;;;;4976352;28;20186;-62
2021/03/20 04:13:00;;;;;;;0.10;0.10;;;;;;;;;;4974017;28;20793;-62
2021/03/20 04:15:46;;;;;;;0.10;0.10;;;;;;;;;;4969454;28;20332;-63
2021/03/20 04:18:14;;;;;;;0.97;0.93;;;;;;;;;;4970362;28;20532;-62
2021/03/20 04:21:13;;;;;;;0.10;0.10;;;;;;;;;;4974240;28;20564;-62
2021/03/20 04:23:43;;;;;;;0.10;0.10;;;;;;;;;;4925315;28;20256;-62
2021/03/20 04:26:23;;;;;;;0.10;0.10;;;;;;;;;;4972770;28;20779;-62
2021/03/20 04:28:55;;;;;;;1.33;0.30;;;;;;;;;;4969817;28;20292;-62
2021/03/20 04:31:25;;;;;;;0.20;0.20;;;;;;;;;;4971749;28;20213;-62
2021/03/20 04:33:52;;;;;;;0.10;0.10;;;;;;;;;;4970943;28;20923;-62
2021/03/20 04:36:21;;;;;;;0.20;0.20;;;;;;;;;;4977497;28;21132;-62
2021/03/20 04:38:48;;;;;;;0.10;0.10;;;;;;;;;;4973439;28;20929;-62
2021/03/20 04:41:15;;;;;;;0.13;0.13;;;;;;;;;;4975531;28;20209;-62
2021/03/20 04:43:42;;;;;;;1.23;0.13;;;;;;;;;;4969870;28;20260;-62
2021/03/20 04:46:14;;;;;;;0.23;0.23;;;;;;;;;;4972061;28;20292;-62
2021/03/20 04:48:43;;;;;;;0.20;0.20;;;;;;;;;;4972638;28;20190;-62
2021/03/20 04:51:29;;;;;;;0.20;0.20;;;;;;;;;;4966393;28;20183;-62
2021/03/20 04:54:03;;;;;;;0.10;0.10;;;;;;;;;;4966010;28;20205;-62
2021/03/20 04:56:32;;;;;;;0.33;0.33;;;;;;;;;;4972414;28;20194;-62
2021/03/20 04:59:00;;;;;;;2.07;1.97;;;;;;;;;;4967685;28;20184;-62
2021/03/20 05:01:39;;;;;;;0.10;0.10;;;;;;;;;;4969491;28;20182;-62
2021/03/20 05:04:32;;;;;;;0.10;0.10;;;;;;;;;;4968683;28;20186;-62
2021/03/20 05:06:59;;;;;;;0.60;0.60;;;;;;;;;;4963236;28;20239;-62
2021/03/20 05:09:27;;;;;;;1.90;0.50;;;;;;;;;;4972629;28;20185;-62
2021/03/20 05:11:58;;;;;;;1.17;0.87;;;;;;;;;;4966763;28;20272;-62
2021/03/20 05:14:37;;;;;;;0.30;0.27;;;;;;;;;;4970319;28;20276;-62
2021/03/20 05:17:07;;;;;;;0.13;0.13;;;;;;;;;;4965600;28;20937;-62
2021/03/20 05:19:33;;;;;;;0.30;0.30;;;;;;;;;;4968569;28;20180;-61
2021/03/20 05:22:02;;;;;;;0.20;0.20;;;;;;;;;;4973906;28;20193;-62
2021/03/20 05:24:30;;;;;;;0.10;0.10;;;;;;;;;;4967477;28;20270;-62
2021/03/20 05:26:57;;;;;;;0.37;0.37;;;;;;;;;;4967502;28;20943;-62
2021/03/20 05:29:25;;;;;;;0.40;0.40;;;;;;;;;;4970283;28;20192;-62
2021/03/20 05:31:52;;;;;;;0.50;0.50;;;;;;;;;;4969642;28;20765;-62
2021/03/20 05:34:37;;;;;;;0.27;0.27;;;;;;;;;;4968982;28;20182;-62
2021/03/20 05:37:05;;;;;;;0.50;0.50;;;;;;;;;;4975296;28;20182;-62
2021/03/20 05:39:32;;;;;;;0.10;0.10;;;;;;;;;;4980337;28;20856;-61
2021/03/20 05:42:13;;;;;;;0.30;0.30;;;;;;;;;;4968114;28;20191;-62
2021/03/20 05:44:56;;;;;;;0.10;0.10;;;;;;;;;;4973015;28;20207;-62
2021/03/20 05:47:34;;;;;;;0.10;0.10;;;;;;;;;;4970610;28;20260;-62
2021/03/20 05:50:10;;;;;;;0.20;0.20;;;;;;;;;;4968584;28;21024;-62
2021/03/20 05:52:49;;;;;;;2.23;0.50;;;;;;;;;;4971303;28;20212;-62
2021/03/20 05:55:25;;;;;;;0.10;0.10;;;;;;;;;;4971587;28;20554;-62
2021/03/20 05:57:51;;;;;;;0.10;0.10;;;;;;;;;;4966563;28;20324;-62
2021/03/20 06:00:36;;;;;;;0.20;0.20;;;;;;;;;;4969368;28;20652;-62
2021/03/20 06:03:18;;;;;;;0.83;0.60;;;;;;;;;;4970281;28;20193;-62
2021/03/20 06:05:56;;;;;;;7.33;0.83;;;;;;;;;;4965719;28;20719;-62
2021/03/20 06:08:51;;;;;;;0.20;0.20;;;;;;;;;;4971970;28;20870;-62
2021/03/20 06:11:24;;;;;;;0.10;0.10;;;;;;;;;;4960682;28;20936;-62
2021/03/20 06:14:02;;;;;;;1.90;1.33;;;;;;;;;;4967154;28;20679;-62
2021/03/20 06:16:31;;;;;;;1.70;1.60;;;;;;;;;;4974807;28;21246;-62
2021/03/20 06:19:06;;;;;;;0.10;0.10;;;;;;;;;;4970435;28;21104;-62
2021/03/20 06:21:32;;;;;;;0.40;0.40;;;;;;;;;;4973953;28;20186;-62
2021/03/20 06:24:34;;;;;;;0.10;0.10;;;;;;;;;;4971708;28;20237;-62
2021/03/20 06:27:01;;;;;;;1.13;0.73;;;;;;;;;;4913581;29;20936;-62
2021/03/20 06:29:33;;;;;;;0.67;0.53;;;;;;;;;;4960796;28;20213;-62
2021/03/20 06:32:05;;;;;;;0.20;0.20;;;;;;;;;;4973936;28;20283;-62
2021/03/20 06:34:38;;;;;;;0.10;0.10;;;;;;;;;;4971354;28;20190;-62
2021/03/20 06:37:27;;;;;;;0.27;0.27;;;;;;;;;;4984719;28;20178;-62
2021/03/20 06:39:54;;;;;;;0.23;0.23;;;;;;;;;;4974979;28;20178;-62
2021/03/20 06:42:25;;;;;;;0.40;0.40;;;;;;;;;;4978156;28;20851;-62
2021/03/20 06:45:15;;;;;;;0.20;0.20;;;;;;;;;;4975342;28;20240;-62
2021/03/20 06:47:41;;;;;;;6.80;2.57;;;;;;;;;;4968126;28;21027;-62
2021/03/20 06:50:20;;;;;;;0.20;0.20;;;;;;;;;;4979118;28;20204;-61
2021/03/20 06:53:02;;;;;;;0.10;0.10;;;;;;;;;;4976406;28;20884;-62
2021/03/20 06:55:41;;;;;;;0.23;0.23;;;;;;;;;;4975259;28;21332;-62
2021/03/20 06:58:13;;;;;;;0.57;0.40;;;;;;;;;;4977367;28;20185;-62
2021/03/20 07:00:40;;;;;;;0.47;0.47;;;;;;;;;;4979313;28;20676;-62
2021/03/20 07:03:25;;;;;;;0.30;0.30;;;;;;;;;;4974891;28;20203;-62
2021/03/20 07:05:57;;;;;;;0.77;0.40;;;;;;;;;;4975706;28;20207;-62
2021/03/20 07:08:23;;;;;;;16.03;4.03;;;;;;;;;;4979013;28;20193;-62
2021/03/20 07:10:53;;;;;;;0.43;0.43;;;;;;;;;;4975700;28;20967;-62
2021/03/20 07:13:21;;;;;;;0.73;0.73;;;;;;;;;;4976642;28;20984;-62
2021/03/20 07:16:06;;;;;;;0.23;0.23;;;;;;;;;;4977973;28;20197;-61
2021/03/20 07:18:38;;;;;;;1.60;1.20;;;;;;;;;;4976758;28;20193;-62
2021/03/20 07:21:20;;;;;;;0.60;0.60;;;;;;;;;;4978694;28;20956;-62
2021/03/20 07:23:54;;;;;;;0.10;0.10;;;;;;;;;;4978097;28;20237;-62
2021/03/20 07:26:21;;;;;;;0.63;0.60;;;;;;;;;;4970126;28;20185;-62
2021/03/20 07:28:52;;;;;;;3.83;0.47;;;;;;;;;;4977375;28;21280;-62
2021/03/20 07:31:19;;;;;;;0.67;0.67;;;;;;;;;;4977244;28;20200;-62
2021/03/20 07:33:48;;;;;;;0.27;0.27;;;;;;;;;;4976611;28;20899;-62
2021/03/20 07:36:15;;;;;;;0.33;0.33;;;;;;;;;;4979795;28;20292;-62
2021/03/20 07:38:41;;;;;;;0.60;0.60;;;;;;;;;;4973706;28;20240;-62
2021/03/20 07:41:12;;;;;;;1.47;0.50;;;;;;;;;;4978623;28;20186;-62
2021/03/20 07:43:39;;;;;;;0.10;0.10;;;;;;;;;;4978076;28;20854;-62
2021/03/20 07:46:16;;;;;;;0.20;0.20;;;;;;;;;;4979010;28;20189;-62
2021/03/20 07:48:44;;;;;;;0.10;0.10;;;;;;;;;;4971545;28;20186;-62
2021/03/20 07:51:12;;;;;;;0.30;0.30;;;;;;;;;;4971336;28;20425;-62
2021/03/20 07:53:40;;;;;;;0.10;0.10;;;;;;;;;;4977056;28;20650;-62
2021/03/20 07:56:21;;;;;;;0.20;0.20;;;;;;;;;;4979402;28;20166;-62
2021/03/20 07:58:49;;;;;;;0.20;0.20;;;;;;;;;;4974794;28;20907;-62
2021/03/20 08:01:15;;;;;;;1.30;0.63;;;;;;;;;;4976564;28;20206;-62
2021/03/20 08:03:50;;;;;;;2.10;0.83;;;;;;;;;;4975783;28;20178;-61
2021/03/20 08:06:21;;;;;;;0.30;0.30;;;;;;;;;;4973334;28;20181;-62
2021/03/20 08:08:47;;;;;;;0.83;0.83;;;;;;;;;;4977055;28;20259;-61
2021/03/20 08:11:34;;;;;;;0.10;0.10;;;;;;;;;;4976744;28;20186;-62
2021/03/20 08:14:22;;;;;;;0.17;0.17;;;;;;;;;;4974186;28;20869;-62
2021/03/20 08:16:50;;;;;;;1.00;0.87;;;;;;;;;;4970613;28;20193;-62
2021/03/20 08:19:17;;;;;;;0.10;0.10;;;;;;;;;;4973711;28;21129;-62
2021/03/20 08:21:50;;;;;;;0.10;0.10;;;;;;;;;;4976978;28;20209;-62
2021/03/20 08:24:16;;;;;;;0.10;0.10;;;;;;;;;;4977334;28;20224;-61
2021/03/20 08:26:49;;;;;;;0.50;0.50;;;;;;;;;;4978283;28;20247;-62
2021/03/20 08:29:21;;;;;;;1.50;1.50;;;;;;;;;;4975510;28;20189;-62
2021/03/20 08:32:15;;;;;;;0.47;0.37;;;;;;;;;;4974305;28;20212;-62
2021/03/20 08:34:41;;;;;;;0.10;0.10;;;;;;;;;;4975377;28;20197;-62
2021/03/20 08:37:17;;;;;;;0.10;0.10;;;;;;;;;;4975995;28;20189;-62
2021/03/20 08:39:43;;;;;;;0.47;0.47;;;;;;;;;;4974892;28;20201;-62
2021/03/20 08:42:28;;;;;;;0.10;0.10;;;;;;;;;;4977058;28;20598;-62
2021/03/20 08:45:01;;;;;;;0.10;0.10;;;;;;;;;;4971272;28;20189;-62
2021/03/20 08:47:46;;;;;;;0.10;0.10;;;;;;;;;;4978453;28;20232;-62
2021/03/20 08:50:25;;;;;;;0.10;0.10;;;;;;;;;;4974868;28;20197;-62
2021/03/20 08:53:01;;;;;;;2.03;1.13;;;;;;;;;;4974379;28;20238;-62
2021/03/20 08:55:30;;;;;;;0.23;0.23;;;;;;;;;;4976338;28;20296;-62
2021/03/20 08:58:02;;;;;;;1.23;1.13;;;;;;;;;;4975794;28;20227;-62
2021/03/20 09:00:33;;;;;;;1.30;1.13;;;;;;;;;;4973151;28;20686;-62
2021/03/20 09:03:11;;;;;;;0.40;0.40;;;;;;;;;;4971700;28;20477;-62
2021/03/20 09:05:40;;;;;;;0.10;0.10;;;;;;;;;;4975707;28;20652;-62
2021/03/20 09:08:16;;;;;;;0.30;0.30;;;;;;;;;;4974731;28;20188;-62
2021/03/20 09:10:53;;;;;;;0.10;0.10;;;;;;;;;;4975987;28;20383;-62
2021/03/20 09:13:20;;;;;;;0.73;0.63;;;;;;;;;;4974933;28;20286;-62
2021/03/20 09:15:52;;;;;;;0.10;0.10;;;;;;;;;;4974456;28;20916;-62
2021/03/20 09:18:19;;;;;;;6.50;2.00;;;;;;;;;;4975518;28;20243;-62
2021/03/20 09:20:49;;;;;;;0.10;0.10;;;;;;;;;;4975800;28;20193;-62
2021/03/20 09:23:21;;;;;;;0.10;0.10;;;;;;;;;;4975300;28;20844;-63
2021/03/20 09:25:52;;;;;;;0.20;0.20;;;;;;;;;;4975797;28;20197;-62
2021/03/20 09:28:29;;;;;;;0.50;0.50;;;;;;;;;;4975129;28;20203;-62
2021/03/20 09:31:01;;;;;;;4.40;1.33;;;;;;;;;;4972570;28;20193;-61
2021/03/20 09:33:28;;;;;;;0.80;0.80;;;;;;;;;;4974194;28;20606;-62
2021/03/20 09:35:56;;;;;;;0.10;0.10;;;;;;;;;;4977594;28;20185;-62
2021/03/20 09:38:35;;;;;;;0.10;0.10;;;;;;;;;;4974579;28;21130;-62
2021/03/20 09:41:01;;;;;;;0.43;0.43;;;;;;;;;;4979774;28;20188;-62
2021/03/20 09:43:46;;;;;;;0.10;0.10;;;;;;;;;;4974884;28;20686;-62
2021/03/20 09:46:28;;;;;;;1.30;0.43;;;;;;;;;;4966208;28;20240;-62
2021/03/20 09:48:55;;;;;;;1.60;0.50;;;;;;;;;;4965205;28;20785;-62
2021/03/20 09:51:39;;;;;;;0.50;0.50;;;;;;;;;;4980089;28;20237;-62
2021/03/20 13:43:48;;;;;;;0.37;0.37;;;;;;;;;;6064263;22;1898794;-57
2021/03/20 13:46:15;;;;;;;2.17;0.70;;;;;;;;;;6137735;23;20151;-57
2021/03/20 13:48:42;;;;;;;0.27;0.27;;;;;;;;;;6140207;23;20150;-58
2021/03/20 13:51:10;;;;;;;0.00;0.00;;;;;;;;;;6140090;23;20168;-58
2021/03/20 13:53:37;;;;;;;0.40;0.40;;;;;;;;;;6140982;23;20175;-59
2021/03/20 13:56:06;;;;;;;1.10;0.50;;;;;;;;;;6140298;23;20148;-58
2021/03/20 13:58:32;;;;;;;0.00;0.00;;;;;;;;;;6139901;23;20160;-58
2021/03/20 14:00:59;;;;;;;0.00;0.00;;;;;;;;;;6139429;23;20164;-59
2021/03/20 14:03:26;;;;;;;7.27;1.37;;;;;;;;;;6138445;23;20224;-59
2021/03/20 14:05:53;;;;;;;0.13;0.10;;;;;;;;;;6136780;23;20147;-59
2021/03/20 14:08:20;;;;;;;0.30;0.30;;;;;;;;;;6139598;23;20203;-59
2021/03/20 14:10:47;;;;;;;1.23;0.43;;;;;;;;;;6139465;23;20942;-59
2021/03/20 14:13:15;;;;;;;3.30;0.73;;;;;;;;;;6139699;23;20151;-59
2021/03/20 14:15:42;;;;;;;0.57;0.57;;;;;;;;;;6140256;23;20157;-59
2021/03/20 14:18:10;;;;;;;0.00;0.00;;;;;;;;;;6140039;23;20246;-59
2021/03/20 14:20:38;;;;;;;4.73;1.03;;;;;;;;;;6139774;23;20252;-59
2021/03/20 14:23:06;;;;;;;2.43;0.93;;;;;;;;;;6139340;23;20614;-59
2021/03/20 14:25:33;;;;;;;0.10;0.07;;;;;;;;;;6138599;23;20559;-59
2021/03/20 14:27:59;;;;;;;0.67;0.50;;;;;;;;;;6138571;23;20464;-58
2021/03/20 14:30:28;;;;;;;0.10;0.10;;;;;;;;;;6139187;23;20494;-59
2021/03/20 14:32:54;;;;;;;0.40;0.33;;;;;;;;;;6140171;23;20567;-58
2021/03/20 14:35:21;;;;;;;0.13;0.13;;;;;;;;;;6140088;23;20176;-58
2021/03/20 14:37:48;;;;;;;6.73;0.93;;;;;;;;;;6138117;23;20873;-59
2021/03/20 14:40:15;;;;;;;1.93;0.20;;;;;;;;;;6139388;23;20137;-59
2021/03/20 14:42:42;;;;;;;0.93;0.47;;;;;;;;;;6150707;23;20204;-59
2021/03/20 14:45:09;;;;;;;0.83;0.63;;;;;;;;;;6163459;23;20156;-58
2021/03/20 14:47:35;;;;;;;7.10;2.17;;;;;;;;;;6162301;23;20597;-59
2021/03/20 14:50:02;;;;;;;0.10;0.10;;;;;;;;;;6162326;23;20145;-58
2021/03/20 14:52:28;;;;;;;4.17;0.67;;;;;;;;;;6162545;23;20187;-58
2021/03/20 14:54:55;;;;;;;2.90;0.70;;;;;;;;;;6160435;23;20259;-59
2021/03/20 14:57:21;;;;;;;0.30;0.10;;;;;;;;;;6161241;23;20148;-59
2021/03/20 14:59:48;;;;;;;2.20;0.13;;;;;;;;;;6162436;23;20149;-59
2021/03/20 15:02:14;;;;;;;0.00;0.00;;;;;;;;;;6159896;23;20176;-59
2021/03/20 15:04:41;;;;;;;1.77;0.53;;;;;;;;;;6162475;23;20586;-60
2021/03/20 15:07:08;;;;;;;0.03;0.03;;;;;;;;;;6163278;23;20157;-59
2021/03/20 15:09:34;;;;;;;0.30;0.23;;;;;;;;;;6161687;23;20649;-59
2021/03/20 15:12:01;;;;;;;5.20;0.87;;;;;;;;;;6130404;23;20247;-59
2021/03/20 15:14:27;;;;;;;11.70;2.43;;;;;;;;;;6157236;23;20152;-58
2021/03/20 15:16:55;;;;;;;1.50;0.87;;;;;;;;;;6157900;23;20141;-59
2021/03/20 15:19:24;;;;;;;1.50;0.33;;;;;;;;;;6157997;22;20141;-58
2021/03/20 15:21:51;;;;;;;0.00;0.00;;;;;;;;;;6151915;23;20199;-59
2021/03/20 15:24:18;;;;;;;8.10;1.80;;;;;;;;;;6154522;22;20141;-59
2021/03/20 15:26:45;;;;;;;0.83;0.20;;;;;;;;;;6154699;22;20151;-58
2021/03/20 15:29:13;;;;;;;0.50;0.50;;;;;;;;;;6156371;23;20148;-59
2021/03/20 15:31:40;;;;;;;1.07;0.13;;;;;;;;;;6156950;23;20156;-58
2021/03/20 15:34:07;;;;;;;4.00;0.53;;;;;;;;;;6156431;22;20145;-59
2021/03/20 15:36:34;;;;;;;1.10;0.47;;;;;;;;;;6150826;23;20155;-59
2021/03/20 15:39:01;;;;;;;0.00;0.00;;;;;;;;;;6154893;23;20474;-58
2021/03/20 15:41:28;;;;;;;4.47;0.80;;;;;;;;;;6154074;23;20269;-59
2021/03/20 15:43:56;;;;;;;0.00;0.00;;;;;;;;;;6161604;22;20213;-59
2021/03/20 15:46:23;;;;;;;1.00;0.10;;;;;;;;;;6161415;23;20907;-59
2021/03/20 15:48:50;;;;;;;0.00;0.00;;;;;;;;;;6161632;23;20816;-59
2021/03/20 15:51:19;;;;;;;1.37;1.30;;;;;;;;;;6162181;23;20157;-59
2021/03/20 15:53:46;;;;;;;0.00;0.00;;;;;;;;;;6160959;22;20908;-58
2021/03/20 15:56:12;;;;;;;0.30;0.30;;;;;;;;;;6159720;23;20149;-58
2021/03/20 15:58:40;;;;;;;0.07;0.07;;;;;;;;;;6160280;23;20197;-59
2021/03/20 16:01:20;;;;;;;0.00;0.00;;;;;;;;;;6160815;23;20829;-59
2021/03/20 16:03:47;;;;;;;0.00;0.00;;;;;;;;;;6162283;23;20149;-59
2021/03/20 16:06:15;;;;;;;0.13;0.03;;;;;;;;;;6162941;23;20156;-59
2021/03/20 16:08:43;;;;;;;9.80;0.63;;;;;;;;;;6160801;23;20200;-58
2021/03/20 16:11:10;;;;;;;0.20;0.20;;;;;;;;;;6160931;23;20175;-58
2021/03/20 16:13:41;;;;;;;0.00;0.00;;;;;;;;;;6160552;23;20141;-59
2021/03/20 16:16:09;;;;;;;0.80;0.77;;;;;;;;;;6154863;22;20157;-58
2021/03/20 16:18:36;;;;;;;0.43;0.40;;;;;;;;;;6157552;23;20171;-59
2021/03/20 16:21:03;;;;;;;0.83;0.83;;;;;;;;;;6158931;23;20209;-59
2021/03/20 16:23:32;;;;;;;0.60;0.60;;;;;;;;;;6159085;23;20148;-59
2021/03/20 16:26:01;;;;;;;0.00;0.00;;;;;;;;;;6160873;22;20145;-60
2021/03/20 16:28:32;;;;;;;2.00;0.47;;;;;;;;;;6159701;23;20183;-59
2021/03/20 16:31:00;;;;;;;0.10;0.10;;;;;;;;;;6157938;23;20172;-59
2021/03/20 16:33:28;;;;;;;0.90;0.43;;;;;;;;;;6155604;23;20153;-59
2021/03/20 16:35:56;;;;;;;2.73;2.33;;;;;;;;;;6161532;23;20148;-59
2021/03/20 16:38:24;;;;;;;0.43;0.27;;;;;;;;;;6159184;23;20244;-59
2021/03/20 16:40:51;;;;;;;0.00;0.00;;;;;;;;;;6161243;23;20858;-60
2021/03/20 16:43:18;;;;;;;0.20;0.20;;;;;;;;;;6160606;22;20200;-60
2021/03/20 16:45:45;;;;;;;0.10;0.10;;;;;;;;;;6161788;23;20141;-59
2021/03/20 16:48:13;;;;;;;6.87;1.00;;;;;;;;;;6162891;23;20171;-60
2021/03/20 16:50:40;;;;;;;11.63;2.20;;;;;;;;;;6131645;23;20153;-58
2021/03/20 16:53:07;;;;;;;0.77;0.50;;;;;;;;;;6160224;23;20305;-59
2021/03/20 16:55:34;;;;;;;0.53;0.07;;;;;;;;;;6135793;23;20141;-59
2021/03/20 16:58:02;;;;;;;0.10;0.10;;;;;;;;;;6159477;23;20149;-60
2021/03/20 17:00:30;;;;;;;7.23;1.37;;;;;;;;;;6161440;22;20149;-58
2021/03/20 17:02:57;;;;;;;0.20;0.20;;;;;;;;;;6160650;22;20187;-59
2021/03/20 17:05:24;;;;;;;1.80;0.93;;;;;;;;;;6162616;23;20152;-60
2021/03/20 17:07:51;;;;;;;0.20;0.20;;;;;;;;;;6162858;23;20145;-59
2021/03/20 17:10:20;;;;;;;3.27;1.57;;;;;;;;;;6160865;23;20144;-59
2021/03/20 17:12:47;;;;;;;0.13;0.13;;;;;;;;;;6162313;23;20156;-58
2021/03/20 17:15:14;;;;;;;0.20;0.20;;;;;;;;;;6162708;23;20141;-60
2021/03/20 17:17:41;;;;;;;0.00;0.00;;;;;;;;;;6160240;23;20237;-60
2021/03/20 17:20:09;;;;;;;3.27;1.07;;;;;;;;;;6160171;23;20157;-60
2021/03/20 17:22:35;;;;;;;2.07;1.33;;;;;;;;;;6159212;23;20176;-60
2021/03/20 17:25:02;;;;;;;2.13;1.13;;;;;;;;;;6160433;23;20145;-60
2021/03/20 17:27:29;;;;;;;0.30;0.30;;;;;;;;;;6161320;23;20858;-59
2021/03/20 17:29:55;;;;;;;0.40;0.30;;;;;;;;;;6163220;23;20223;-59
2021/03/20 17:32:22;;;;;;;0.10;0.10;;;;;;;;;;6161391;23;20174;-59
2021/03/20 17:34:50;;;;;;;0.97;0.23;;;;;;;;;;6161378;23;20148;-59
2021/03/20 17:37:17;;;;;;;0.20;0.20;;;;;;;;;;6163141;23;20169;-60
2021/03/20 17:39:43;;;;;;;0.00;0.00;;;;;;;;;;6162736;23;20172;-59
2021/03/20 17:42:10;;;;;;;0.00;0.00;;;;;;;;;;6161759;23;20204;-60
2021/03/20 17:44:37;;;;;;;0.00;0.00;;;;;;;;;;6162918;23;20160;-59
2021/03/20 17:47:04;;;;;;;0.00;0.00;;;;;;;;;;6162131;23;20145;-59
2021/03/20 17:49:32;;;;;;;1.30;0.27;;;;;;;;;;6162050;22;20985;-60
2021/03/20 17:51:58;;;;;;;0.00;0.00;;;;;;;;;;6161360;23;20149;-59
2021/03/20 17:54:25;;;;;;;0.10;0.10;;;;;;;;;;6161690;23;20145;-59
2021/03/20 17:56:51;;;;;;;0.00;0.00;;;;;;;;;;6161085;23;20615;-59
2021/03/20 17:59:18;;;;;;;6.43;0.80;;;;;;;;;;6160783;23;20590;-59
2021/03/20 18:01:45;;;;;;;0.63;0.30;;;;;;;;;;6159381;23;20279;-60
2021/03/20 18:04:12;;;;;;;4.90;2.30;;;;;;;;;;6159900;23;20140;-59
2021/03/20 18:06:41;;;;;;;8.80;0.77;;;;;;;;;;6161164;23;20145;-59
2021/03/20 18:09:08;;;;;;;0.30;0.20;;;;;;;;;;6161849;22;20199;-59
2021/03/20 18:11:34;;;;;;;0.17;0.17;;;;;;;;;;6162207;23;20137;-59
2021/03/20 18:14:01;;;;;;;5.57;0.73;;;;;;;;;;6159673;23;20183;-59
2021/03/20 18:16:27;;;;;;;0.30;0.30;;;;;;;;;;6161497;23;20206;-58
2021/03/20 18:18:54;;;;;;;0.00;0.00;;;;;;;;;;6162095;23;20269;-59
2021/03/20 18:21:20;;;;;;;1.33;0.20;;;;;;;;;;6158588;23;22075;-59
2021/03/20 18:23:47;;;;;;;1.23;0.90;;;;;;;;;;6161822;23;20153;-59
2021/03/20 18:26:14;;;;;;;0.37;0.37;;;;;;;;;;6161937;23;20156;-60
2021/03/20 18:28:41;;;;;;;2.00;0.27;;;;;;;;;;6162707;23;20168;-60
2021/03/20 18:31:09;;;;;;;0.67;0.20;;;;;;;;;;6161095;23;20184;-60
2021/03/20 18:33:36;;;;;;;0.93;0.70;;;;;;;;;;6161450;23;20335;-60
2021/03/20 18:36:03;;;;;;;0.37;0.10;;;;;;;;;;6161234;23;20167;-59
2021/03/20 18:38:31;;;;;;;1.50;1.20;;;;;;;;;;6159588;23;20878;-59
2021/03/20 18:40:58;;;;;;;7.00;0.73;;;;;;;;;;6161546;23;20161;-59
2021/03/20 18:43:25;;;;;;;3.30;1.07;;;;;;;;;;6161174;23;20227;-60
2021/03/20 18:45:52;;;;;;;1.03;0.53;;;;;;;;;;6158833;23;20148;-59
2021/03/20 18:48:19;;;;;;;8.30;0.53;;;;;;;;;;6159975;23;20137;-59
2021/03/20 18:50:46;;;;;;;2.43;1.23;;;;;;;;;;6162330;23;20148;-59
2021/03/20 18:53:13;;;;;;;1.07;0.57;;;;;;;;;;6161086;23;20152;-60